Norfolk Downs, Massachusetts
Current Conditions -  °F | °C
As of 11:28 AM on Wednesday 26 Nov 2014 (Local Time) from KBOS Reporting Station
Moderate Rain Moderate Rain  
Wind Chill: 30°   Ceiling: 1800
Heat Index: 37°   Visibility: 2mi
Dew Point: 36°   Wind: 10mph
Humidity: 93%   Direction: 20°NNE
Pressure: 30.13"   Gusts: NA
Location:  42.2866°N, 71.0248°W
Report Text: KBOS 261628Z 02009KT 2SM RA BR BKN018 OVC025 03/02 A3013 RMK AO2 TWR VIS 3 P0005
Loading
Personal Weather Stations






























Interactive Weather Map New forecast layout! Learn more

10-Day Weather Forecast

Advertisements
Track Severe Weather on mobile